Fried, North Dakota
Current Conditions -  °F | °C
As of 2:56 PM on Tuesday 27 Jan 2015 (Local Time) from KJMS Reporting Station
Clear Clear  
Wind Chill: 33°   Ceiling: Unl
Heat Index: 41°   Visibility: 10mi
Dew Point: 35°   Wind: 15mph
Humidity: 79%   Direction: 160°SSE
Pressure: 29.87"   Gusts: NA
Location:  46.8494°N, 98.7424°W
Report Text: KJMS 272056Z AUTO 16013KT 10SM CLR 05/02 A2987 RMK AO2 SLP133 T00500017 56020
Loading
Personal Weather Stations






























Interactive Weather Map New forecast layout! Learn more

10-Day Weather Forecast

Advertisements
Track Severe Weather on mobile